Aviation Digital Data Service (ADDS)

Output produced by METARs form (0225 UTC 25 July 2016)
found at http://aviationweather.gov/adds/metars/
 
KMBS 242325Z 2500/2524 20010KT 6SM -SHRA BKN035 OVC080 
     TEMPO 2500/2504 2SM TSRA OVC025CB 
     FM250400 24007KT 5SM BR BKN020 OVC035 
     FM250800 27005KT 3SM BR SCT020 BKN150 
     FM251300 31010KT P6SM SCT040 BKN250 
     FM251900 31013G20KT P6SM SCT050